ANA1835 RJTT-RJTH
Flight info
| Callsign | ANA1835 |
|---|---|
| Flight time | 0h 38m |
| Altitude | 20000 |
| Route | VAMOS XAC/N0389F190 V18 HCE |
| Aircraft | B738/M-SDE2E3FGHIRWXY/LB1 |
Departure
| Time | 2026-04-11 09:03 |
|---|---|
| Airport | Tokyo Haneda International Airport (RJTT) |
Arrival
| Time | 2026-04-11 09:42 |
|---|---|
| Airport | Hachijojima Airport (RJTH) |
| Time | Latitude | Longitude | Altitude | Speed | Heading |
|---|---|---|---|---|---|
| 2026-04-11 08:56 | 35.55956 | 139.78484 | 23 ft | 0 kts | 329° |
| 2026-04-11 08:58 | 35.55957 | 139.78483 | 23 ft | 1 kts | 329° |
| 2026-04-11 08:58 | 35.55991 | 139.78488 | 23 ft | 9 kts | 33° |
| 2026-04-11 08:58 | 35.56025 | 139.78555 | 23 ft | 9 kts | 62° |
| 2026-04-11 08:59 | 35.56054 | 139.78619 | 23 ft | 8 kts | 60° |
| 2026-04-11 08:59 | 35.56083 | 139.78680 | 23 ft | 8 kts | 58° |
| 2026-04-11 08:59 | 35.56095 | 139.78743 | 22 ft | 8 kts | 116° |
| 2026-04-11 08:59 | 35.56034 | 139.78794 | 24 ft | 15 kts | 149° |
| 2026-04-11 09:00 | 35.55916 | 139.78880 | 23 ft | 24 kts | 149° |
| 2026-04-11 09:00 | 35.55745 | 139.79003 | 23 ft | 32 kts | 150° |
| 2026-04-11 09:00 | 35.55532 | 139.79150 | 24 ft | 39 kts | 150° |
| 2026-04-11 09:00 | 35.55275 | 139.79335 | 22 ft | 45 kts | 149° |
| 2026-04-11 09:01 | 35.55017 | 139.79515 | 22 ft | 38 kts | 151° |
| 2026-04-11 09:01 | 35.54796 | 139.79673 | 24 ft | 36 kts | 149° |
| 2026-04-11 09:01 | 35.54589 | 139.79820 | 24 ft | 33 kts | 150° |
| 2026-04-11 09:01 | 35.54396 | 139.79956 | 22 ft | 31 kts | 150° |
| 2026-04-11 09:02 | 35.54237 | 139.80070 | 23 ft | 20 kts | 150° |
| 2026-04-11 09:02 | 35.54216 | 139.80202 | 23 ft | 19 kts | 59° |
| 2026-04-11 09:02 | 35.54310 | 139.80271 | 24 ft | 18 kts | 330° |
| 2026-04-11 09:02 | 35.54546 | 139.80102 | 23 ft | 82 kts | 329° |
| 2026-04-11 09:03 | 35.55310 | 139.79565 | 26 ft | 168 kts | 331° |
| 2026-04-11 09:03 | 35.56457 | 139.78800 | 620 ft | 199 kts | 332° |
| 2026-04-11 09:03 | 35.57724 | 139.78027 | 1593 ft | 206 kts | 338° |
| 2026-04-11 09:03 | 35.59154 | 139.77938 | 2388 ft | 221 kts | 17° |
| 2026-04-11 09:04 | 35.60427 | 139.79152 | 2921 ft | 249 kts | 56° |
| 2026-04-11 09:04 | 35.60806 | 139.81237 | 3778 ft | 257 kts | 96° |
| 2026-04-11 09:04 | 35.60096 | 139.83171 | 4987 ft | 245 kts | 126° |
| 2026-04-11 09:04 | 35.59423 | 139.84265 | 5762 ft | 238 kts | 126° |
| 2026-04-11 09:05 | 35.58499 | 139.85899 | 6768 ft | 230 kts | 123° |
| 2026-04-11 09:05 | 35.57663 | 139.87548 | 7656 ft | 225 kts | 122° |
| 2026-04-11 09:05 | 35.56864 | 139.89204 | 8483 ft | 225 kts | 128° |
| 2026-04-11 09:05 | 35.55656 | 139.90385 | 8994 ft | 226 kts | 169° |
| 2026-04-11 09:06 | 35.54077 | 139.90803 | 9235 ft | 244 kts | 176° |
| 2026-04-11 09:06 | 35.52331 | 139.91284 | 9409 ft | 269 kts | 173° |
| 2026-04-11 09:06 | 35.50466 | 139.91878 | 9775 ft | 282 kts | 172° |
| 2026-04-11 09:06 | 35.48561 | 139.92519 | 10306 ft | 286 kts | 172° |
| 2026-04-11 09:07 | 35.46636 | 139.93104 | 10875 ft | 282 kts | 181° |
| 2026-04-11 09:07 | 35.44750 | 139.92904 | 11429 ft | 266 kts | 205° |
| 2026-04-11 09:07 | 35.43106 | 139.91987 | 12071 ft | 256 kts | 218° |
| 2026-04-11 09:07 | 35.41561 | 139.90915 | 12672 ft | 256 kts | 219° |
| 2026-04-11 09:08 | 35.40021 | 139.89824 | 13271 ft | 256 kts | 219° |
| 2026-04-11 09:08 | 35.38492 | 139.88742 | 13810 ft | 257 kts | 219° |
| 2026-04-11 09:08 | 35.36921 | 139.87637 | 14321 ft | 258 kts | 219° |
| 2026-04-11 09:08 | 35.35353 | 139.86539 | 14825 ft | 259 kts | 219° |
| 2026-04-11 09:09 | 35.33802 | 139.85459 | 15317 ft | 260 kts | 219° |
| 2026-04-11 09:09 | 35.32203 | 139.84348 | 15823 ft | 262 kts | 219° |
| 2026-04-11 09:09 | 35.30637 | 139.83263 | 16309 ft | 263 kts | 219° |
| 2026-04-11 09:09 | 35.29040 | 139.82156 | 16725 ft | 266 kts | 220° |
| 2026-04-11 09:10 | 35.27423 | 139.81037 | 17175 ft | 268 kts | 220° |
| 2026-04-11 09:10 | 35.25796 | 139.79914 | 17666 ft | 268 kts | 220° |
| 2026-04-11 09:10 | 35.24168 | 139.78790 | 18106 ft | 270 kts | 220° |
| 2026-04-11 09:10 | 35.22530 | 139.77661 | 18502 ft | 271 kts | 220° |
| 2026-04-11 09:11 | 35.20885 | 139.76527 | 18913 ft | 272 kts | 220° |
| 2026-04-11 09:11 | 35.19240 | 139.75378 | 19303 ft | 272 kts | 221° |
| 2026-04-11 09:11 | 35.17601 | 139.74213 | 19662 ft | 273 kts | 221° |
| 2026-04-11 09:11 | 35.15952 | 139.73036 | 20015 ft | 275 kts | 221° |
| 2026-04-11 09:12 | 35.14293 | 139.71853 | 20409 ft | 276 kts | 221° |
| 2026-04-11 09:12 | 35.12635 | 139.70673 | 20798 ft | 276 kts | 221° |
| 2026-04-11 09:12 | 35.10972 | 139.69489 | 21168 ft | 277 kts | 221° |
| 2026-04-11 09:12 | 35.09303 | 139.68302 | 21524 ft | 278 kts | 221° |
| 2026-04-11 09:13 | 35.07628 | 139.67112 | 21879 ft | 279 kts | 221° |
| 2026-04-11 09:13 | 35.05947 | 139.65919 | 22224 ft | 280 kts | 221° |
| 2026-04-11 09:13 | 35.04258 | 139.64721 | 22566 ft | 281 kts | 221° |
| 2026-04-11 09:13 | 35.02567 | 139.63522 | 22864 ft | 282 kts | 221° |
| 2026-04-11 09:14 | 35.00869 | 139.62319 | 23206 ft | 282 kts | 221° |
| 2026-04-11 09:14 | 34.99166 | 139.61112 | 23472 ft | 283 kts | 221° |
| 2026-04-11 09:14 | 34.97458 | 139.59902 | 23718 ft | 285 kts | 221° |
| 2026-04-11 09:14 | 34.95739 | 139.58685 | 23962 ft | 286 kts | 221° |
| 2026-04-11 09:15 | 34.94016 | 139.57467 | 24208 ft | 287 kts | 221° |
| 2026-04-11 09:15 | 34.92287 | 139.56244 | 24455 ft | 287 kts | 221° |
| 2026-04-11 09:15 | 34.90576 | 139.55035 | 24682 ft | 289 kts | 222° |
| 2026-04-11 09:15 | 34.88834 | 139.53805 | 24904 ft | 290 kts | 222° |
| 2026-04-11 09:16 | 34.87084 | 139.52571 | 25123 ft | 291 kts | 222° |
| 2026-04-11 09:16 | 34.85328 | 139.51332 | 25297 ft | 293 kts | 222° |
| 2026-04-11 09:16 | 34.83562 | 139.50089 | 25505 ft | 294 kts | 222° |
| 2026-04-11 09:16 | 34.81791 | 139.48843 | 25719 ft | 295 kts | 222° |
| 2026-04-11 09:17 | 34.80012 | 139.47591 | 25921 ft | 296 kts | 222° |
| 2026-04-11 09:17 | 34.78226 | 139.46335 | 26117 ft | 297 kts | 223° |
| 2026-04-11 09:17 | 34.76436 | 139.45077 | 26316 ft | 298 kts | 223° |
| 2026-04-11 09:17 | 34.74639 | 139.43815 | 26461 ft | 299 kts | 223° |
| 2026-04-11 09:18 | 34.72762 | 139.42637 | 26592 ft | 314 kts | 213° |
| 2026-04-11 09:18 | 34.70571 | 139.42025 | 26813 ft | 331 kts | 201° |
| 2026-04-11 09:18 | 34.68197 | 139.41998 | 26991 ft | 354 kts | 187° |
| 2026-04-11 09:18 | 34.65737 | 139.42481 | 27162 ft | 361 kts | 184° |
| 2026-04-11 09:19 | 34.63256 | 139.43074 | 27318 ft | 365 kts | 182° |
| 2026-04-11 09:19 | 34.60770 | 139.43693 | 27474 ft | 366 kts | 182° |
| 2026-04-11 09:19 | 34.58271 | 139.44310 | 27625 ft | 367 kts | 183° |
| 2026-04-11 09:19 | 34.55792 | 139.44908 | 27651 ft | 368 kts | 183° |
| 2026-04-11 09:20 | 34.53280 | 139.45503 | 27678 ft | 367 kts | 183° |
| 2026-04-11 09:20 | 34.50771 | 139.46090 | 27685 ft | 366 kts | 183° |
| 2026-04-11 09:20 | 34.48271 | 139.46670 | 27702 ft | 365 kts | 183° |
| 2026-04-11 09:20 | 34.45775 | 139.47245 | 27715 ft | 365 kts | 183° |
| 2026-04-11 09:21 | 34.43286 | 139.47815 | 27713 ft | 365 kts | 183° |
| 2026-04-11 09:21 | 34.40784 | 139.48386 | 27721 ft | 366 kts | 183° |
| 2026-04-11 09:21 | 34.38281 | 139.48957 | 27733 ft | 367 kts | 183° |
| 2026-04-11 09:21 | 34.35764 | 139.49531 | 27725 ft | 368 kts | 183° |
| 2026-04-11 09:22 | 34.33249 | 139.50106 | 27747 ft | 369 kts | 183° |
| 2026-04-11 09:22 | 34.30712 | 139.50685 | 27753 ft | 370 kts | 183° |
| 2026-04-11 09:22 | 34.28172 | 139.51266 | 27754 ft | 371 kts | 183° |
| 2026-04-11 09:22 | 34.25632 | 139.51846 | 27765 ft | 372 kts | 183° |
| 2026-04-11 09:23 | 34.23091 | 139.52426 | 27767 ft | 372 kts | 183° |
| 2026-04-11 09:23 | 34.20543 | 139.53006 | 27764 ft | 372 kts | 183° |
| 2026-04-11 09:23 | 34.18029 | 139.53582 | 27745 ft | 372 kts | 183° |
| 2026-04-11 09:23 | 34.15489 | 139.54168 | 27761 ft | 372 kts | 183° |
| 2026-04-11 09:24 | 34.12953 | 139.54753 | 27760 ft | 371 kts | 183° |
| 2026-04-11 09:24 | 34.10414 | 139.55337 | 27769 ft | 371 kts | 183° |
| 2026-04-11 09:24 | 34.07882 | 139.55923 | 27740 ft | 371 kts | 182° |
| 2026-04-11 09:24 | 34.05381 | 139.56776 | 27545 ft | 372 kts | 173° |
| 2026-04-11 09:25 | 34.03011 | 139.57891 | 27461 ft | 357 kts | 172° |
| 2026-04-11 09:25 | 34.00763 | 139.58991 | 27317 ft | 341 kts | 172° |
| 2026-04-11 09:25 | 33.98602 | 139.60044 | 27092 ft | 330 kts | 173° |
| 2026-04-11 09:25 | 33.96487 | 139.61054 | 26699 ft | 325 kts | 174° |
| 2026-04-11 09:26 | 33.94393 | 139.62037 | 26262 ft | 322 kts | 174° |
| 2026-04-11 09:26 | 33.92318 | 139.63004 | 25842 ft | 319 kts | 174° |
| 2026-04-11 09:26 | 33.90256 | 139.63963 | 25430 ft | 315 kts | 174° |
| 2026-04-11 09:26 | 33.88256 | 139.64894 | 24942 ft | 310 kts | 174° |
| 2026-04-11 09:27 | 33.86238 | 139.65829 | 24218 ft | 313 kts | 174° |
| 2026-04-11 09:27 | 33.84169 | 139.66775 | 23333 ft | 322 kts | 173° |
| 2026-04-11 09:27 | 33.82078 | 139.67741 | 22527 ft | 322 kts | 172° |
| 2026-04-11 09:27 | 33.79990 | 139.68711 | 21763 ft | 320 kts | 171° |
| 2026-04-11 09:28 | 33.77915 | 139.69677 | 21054 ft | 319 kts | 171° |
| 2026-04-11 09:28 | 33.75856 | 139.70634 | 20355 ft | 316 kts | 170° |
| 2026-04-11 09:28 | 33.73805 | 139.71586 | 19675 ft | 315 kts | 169° |
| 2026-04-11 09:28 | 33.71768 | 139.72530 | 19028 ft | 313 kts | 169° |
| 2026-04-11 09:29 | 33.69756 | 139.73464 | 18621 ft | 303 kts | 168° |
| 2026-04-11 09:29 | 33.67797 | 139.74373 | 17924 ft | 305 kts | 168° |
| 2026-04-11 09:29 | 33.65805 | 139.75289 | 17117 ft | 308 kts | 168° |
| 2026-04-11 09:29 | 33.63830 | 139.76287 | 16461 ft | 308 kts | 165° |
| 2026-04-11 09:30 | 33.61887 | 139.77352 | 15841 ft | 305 kts | 163° |
| 2026-04-11 09:30 | 33.59983 | 139.78413 | 15413 ft | 295 kts | 163° |
| 2026-04-11 09:30 | 33.58149 | 139.79436 | 14798 ft | 293 kts | 164° |
| 2026-04-11 09:30 | 33.56265 | 139.80466 | 14019 ft | 300 kts | 163° |
| 2026-04-11 09:31 | 33.54374 | 139.81500 | 13413 ft | 297 kts | 163° |
| 2026-04-11 09:31 | 33.52507 | 139.82520 | 12815 ft | 292 kts | 164° |
| 2026-04-11 09:31 | 33.50675 | 139.83520 | 12262 ft | 287 kts | 163° |
| 2026-04-11 09:31 | 33.48861 | 139.84506 | 11582 ft | 287 kts | 164° |
| 2026-04-11 09:32 | 33.47026 | 139.85497 | 10886 ft | 288 kts | 163° |
| 2026-04-11 09:32 | 33.45201 | 139.86487 | 10158 ft | 289 kts | 163° |
| 2026-04-11 09:32 | 33.43358 | 139.87482 | 9340 ft | 292 kts | 163° |
| 2026-04-11 09:32 | 33.41526 | 139.88473 | 8555 ft | 292 kts | 163° |
| 2026-04-11 09:33 | 33.39685 | 139.89471 | 7851 ft | 288 kts | 163° |
| 2026-04-11 09:33 | 33.37865 | 139.90457 | 7171 ft | 285 kts | 163° |
| 2026-04-11 09:33 | 33.36070 | 139.91428 | 6501 ft | 282 kts | 162° |
| 2026-04-11 09:33 | 33.34291 | 139.92390 | 5779 ft | 279 kts | 162° |
| 2026-04-11 09:34 | 33.32519 | 139.93345 | 5041 ft | 279 kts | 161° |
| 2026-04-11 09:34 | 33.30763 | 139.94293 | 4496 ft | 271 kts | 161° |
| 2026-04-11 09:34 | 33.29116 | 139.95188 | 4330 ft | 251 kts | 162° |
| 2026-04-11 09:34 | 33.27567 | 139.96010 | 4223 ft | 236 kts | 163° |
| 2026-04-11 09:35 | 33.26101 | 139.96761 | 4113 ft | 222 kts | 164° |
| 2026-04-11 09:35 | 33.24718 | 139.97465 | 4030 ft | 210 kts | 165° |
| 2026-04-11 09:35 | 33.23422 | 139.98130 | 4025 ft | 199 kts | 166° |
| 2026-04-11 09:35 | 33.22152 | 139.98776 | 3971 ft | 198 kts | 165° |
| 2026-04-11 09:36 | 33.20875 | 139.99274 | 3875 ft | 185 kts | 188° |
| 2026-04-11 09:36 | 33.19699 | 139.99008 | 3827 ft | 165 kts | 217° |
| 2026-04-11 09:36 | 33.18794 | 139.98251 | 3759 ft | 157 kts | 236° |
| 2026-04-11 09:36 | 33.18203 | 139.97213 | 3610 ft | 152 kts | 252° |
| 2026-04-11 09:37 | 33.17772 | 139.96065 | 3424 ft | 151 kts | 255° |
| 2026-04-11 09:37 | 33.17359 | 139.94932 | 3227 ft | 146 kts | 255° |
| 2026-04-11 09:37 | 33.16957 | 139.93826 | 3036 ft | 143 kts | 256° |
| 2026-04-11 09:37 | 33.16578 | 139.92791 | 2863 ft | 129 kts | 256° |
| 2026-04-11 09:38 | 33.16236 | 139.91851 | 2686 ft | 123 kts | 257° |
| 2026-04-11 09:38 | 33.15902 | 139.90933 | 2524 ft | 119 kts | 258° |
| 2026-04-11 09:38 | 33.15554 | 139.90036 | 2444 ft | 120 kts | 255° |
| 2026-04-11 09:38 | 33.15197 | 139.89149 | 2458 ft | 122 kts | 255° |
| 2026-04-11 09:39 | 33.14805 | 139.88244 | 2355 ft | 125 kts | 253° |
| 2026-04-11 09:39 | 33.14368 | 139.87360 | 2193 ft | 123 kts | 252° |
| 2026-04-11 09:39 | 33.13916 | 139.86465 | 1767 ft | 123 kts | 252° |
| 2026-04-11 09:39 | 33.13497 | 139.85642 | 1533 ft | 110 kts | 256° |
| 2026-04-11 09:40 | 33.13291 | 139.85100 | 1395 ft | 109 kts | 261° |
| 2026-04-11 09:40 | 33.13052 | 139.84254 | 1246 ft | 108 kts | 263° |
| 2026-04-11 09:40 | 33.12908 | 139.83380 | 1091 ft | 107 kts | 266° |
| 2026-04-11 09:40 | 33.12750 | 139.82500 | 925 ft | 111 kts | 260° |
| 2026-04-11 09:41 | 33.12468 | 139.81609 | 761 ft | 118 kts | 255° |
| 2026-04-11 09:41 | 33.12154 | 139.80699 | 564 ft | 117 kts | 254° |
| 2026-04-11 09:41 | 33.11886 | 139.79798 | 372 ft | 114 kts | 257° |
| 2026-04-11 09:41 | 33.11626 | 139.78953 | 296 ft | 98 kts | 255° |
| 2026-04-11 09:42 | 33.11428 | 139.78301 | 297 ft | 66 kts | 249° |
| 2026-04-11 09:42 | 33.11300 | 139.77891 | 296 ft | 47 kts | 250° |
| 2026-04-11 09:42 | 33.11221 | 139.77636 | 294 ft | 2 kts | 200° |
| 2026-04-11 09:43 | 33.11232 | 139.77703 | 297 ft | 14 kts | 63° |
| 2026-04-11 09:43 | 33.11279 | 139.77852 | 295 ft | 25 kts | 70° |
| 2026-04-11 09:43 | 33.11343 | 139.78052 | 294 ft | 26 kts | 69° |
| 2026-04-11 09:43 | 33.11406 | 139.78249 | 299 ft | 24 kts | 69° |
| 2026-04-11 09:44 | 33.11480 | 139.78346 | 297 ft | 15 kts | 354° |
| 2026-04-11 09:44 | 33.11555 | 139.78316 | 296 ft | 8 kts | 352° |
| 2026-04-11 09:44 | 33.11584 | 139.78325 | 297 ft | 4 kts | 15° |
| 2026-04-11 09:44 | 33.11598 | 139.78324 | 298 ft | 0 kts | 334° |